Terminal Aerodrome Forecast
Issued by NWS Corpus Christi, TX

Home | Current Version | Previous Version | Text Only | Print | Product List | Glossary On
Versions: 1 2 3 4 5 6 7 8 9 10 11 12 13 14 15 16 17 18 19
000
FTUS44 KCRP 221100
TAFCRP
TAF
KCRP 221120Z 2212/2312 08006KT P6SM FEW020 SCT250
      TEMPO 2212/2214 6SM BR MIFG
     FM221400 04010KT P6SM SKC
     FM221800 08014KT P6SM SKC
     FM230300 10004KT P6SM FEW020 SCT050=

USA.gov is the U.S. government's official web portal to all federal, state and local government web resources and services.